createdAt,value
2019-02-27T07:04:46.689Z,65.26
2019-02-27T07:05:45.532Z,64.10
2019-02-27T07:06:44.621Z,62.71
2019-02-27T07:07:44.603Z,62.40
2019-02-27T07:08:44.592Z,61.07
2019-02-27T07:09:45.807Z,62.23
2019-02-27T07:10:44.577Z,62.30
2019-02-27T07:11:46.381Z,60.60
2019-02-27T07:12:44.549Z,59.86
2019-02-27T07:13:44.537Z,60.37
2019-02-27T07:14:44.533Z,60.35
2019-02-27T07:15:47.733Z,59.63
2019-02-27T07:16:44.511Z,59.53
2019-02-27T07:17:44.498Z,58.68
2019-02-27T07:18:44.485Z,58.25
2019-02-27T07:19:44.475Z,57.40
2019-02-27T07:20:44.465Z,57.34
2019-02-27T07:21:44.453Z,56.43
2019-02-27T07:22:46.571Z,56.04
2019-02-27T07:23:44.434Z,55.43
2019-02-27T07:24:44.422Z,56.61
2019-02-27T07:25:44.409Z,56.71
2019-02-27T07:26:44.401Z,56.68
2019-02-27T07:27:44.389Z,55.89
2019-02-27T07:28:44.381Z,54.85
2019-02-27T07:29:44.365Z,52.98
2019-02-27T07:30:44.366Z,52.76
2019-02-27T07:31:44.343Z,52.66
2019-02-27T07:32:44.353Z,52.73
2019-02-27T07:33:44.322Z,53.09
2019-02-27T07:34:46.752Z,51.23
2019-02-27T07:35:45.303Z,51.16
2019-02-27T07:36:44.288Z,49.90
2019-02-27T07:37:47.179Z,48.15
2019-02-27T07:38:44.268Z,47.30
2019-02-27T07:39:44.257Z,46.54
2019-02-27T07:40:44.243Z,45.10
2019-02-27T07:41:44.233Z,45.55
2019-02-27T07:42:44.242Z,46.61
2019-02-27T07:43:44.220Z,47.02
2019-02-27T07:44:44.202Z,47.28
2019-02-27T07:45:45.551Z,47.69
2019-02-27T07:46:44.183Z,47.24
2019-02-27T07:47:44.172Z,46.41
2019-02-27T07:48:44.720Z,46.94
2019-02-27T07:49:44.171Z,46.90
2019-02-27T07:50:48.347Z,48.87
2019-02-27T07:51:44.129Z,48.93
2019-02-27T07:52:44.140Z,47.46
2019-02-27T07:53:44.105Z,46.35
2019-02-27T07:54:44.117Z,47.49
2019-02-27T07:55:44.084Z,46.94
2019-02-27T07:56:44.067Z,45.27
2019-02-27T07:57:44.072Z,44.42
2019-02-27T07:58:44.049Z,43.37
2019-02-27T07:59:44.038Z,44.07
2019-02-27T08:00:44.033Z,43.44
2019-02-27T08:01:44.258Z,40.98
2019-02-27T08:02:44.006Z,40.66
2019-02-27T08:03:45.574Z,41.55
2019-02-27T08:04:43.981Z,41.02
2019-02-27T08:05:43.966Z,40.48
2019-02-27T08:06:43.965Z,38.75
2019-02-27T08:07:48.704Z,39.65
2019-02-27T08:08:44.937Z,40.18
2019-02-27T08:09:43.925Z,40.70
2019-02-27T08:10:45.274Z,40.48
2019-02-27T08:11:47.104Z,41.19
2019-02-27T08:12:43.891Z,40.48
2019-02-27T08:13:43.884Z,41.85
2019-02-27T08:14:43.874Z,41.47
2019-02-27T08:15:43.862Z,42.29
2019-02-27T08:16:43.850Z,41.13
2019-02-27T08:17:43.860Z,40.54
2019-02-27T08:18:43.835Z,41.50
2019-02-27T08:19:45.384Z,42.54
2019-02-27T08:20:43.807Z,40.39
2019-02-27T08:21:43.793Z,40.25
2019-02-27T08:25:10.978Z,36.89
2019-02-27T08:26:10.882Z,36.67
2019-02-27T08:27:43.747Z,33.98
2019-02-27T08:28:41.438Z,34.43
2019-02-27T08:30:13.809Z,35.21
2019-02-27T08:31:11.794Z,36.07
2019-02-27T08:32:11.773Z,37.08
2019-02-27T08:33:11.765Z,38.67
2019-02-27T08:34:11.747Z,40.44
2019-02-27T08:35:11.739Z,41.71
2019-02-27T08:36:11.728Z,43.26
2019-02-27T08:37:11.717Z,43.81
2019-02-27T08:38:11.710Z,45.23
2019-02-27T08:39:11.700Z,45.23
2019-02-27T08:40:11.686Z,45.31
2019-02-27T08:41:11.671Z,44.17
2019-02-27T08:42:11.664Z,43.46
2019-02-27T08:43:11.651Z,44.27
2019-02-27T08:44:12.262Z,43.65
2019-02-27T08:45:19.233Z,43.00
2019-02-27T08:46:12.615Z,41.63
2019-02-27T08:47:11.609Z,40.55
